createdAt,value
2022-09-04T00:05:02.179Z,12.00
2022-09-04T00:10:33.558Z,12.00
2022-09-04T00:16:05.422Z,12.00
2022-09-04T00:27:17.576Z,12.00
2022-09-04T00:32:49.320Z,11.00
2022-09-04T00:38:23.853Z,12.00
2022-09-04T00:43:55.278Z,12.00
2022-09-04T00:49:27.650Z,13.00
2022-09-04T00:55:05.509Z,11.00
2022-09-04T01:00:37.390Z,12.00
2022-09-04T01:06:08.995Z,12.00
2022-09-04T01:11:40.810Z,12.00
2022-09-04T01:17:12.765Z,13.00
2022-09-04T01:22:45.690Z,13.00
2022-09-04T01:28:18.509Z,3.00
2022-09-04T01:33:49.963Z,3.00
2022-09-04T01:39:21.967Z,3.00
2022-09-04T01:44:53.666Z,3.00
2022-09-04T01:50:31.286Z,3.00
2022-09-04T01:56:02.881Z,3.00
2022-09-04T02:01:34.994Z,1.00
2022-09-04T02:07:06.424Z,1.00
2022-09-04T02:12:38.055Z,1.00
2022-09-04T02:23:41.680Z,1.00
2022-09-04T02:29:13.611Z,1.00
2022-09-04T02:34:45.610Z,1.00
2022-09-04T02:40:17.384Z,1.00
2022-09-04T02:45:49.111Z,1.00
2022-09-04T02:51:20.989Z,1.00
2022-09-04T02:56:53.187Z,1.00
2022-09-04T02:59:16.914Z,1.00
2022-09-04T03:10:20.268Z,1.00
2022-09-04T03:15:52.495Z,1.00
2022-09-04T03:21:24.273Z,1.00
2022-09-04T03:26:55.939Z,1.00
2022-09-04T03:32:27.801Z,1.00
2022-09-04T03:37:59.636Z,1.00
2022-09-04T03:43:31.358Z,1.00
2022-09-04T03:49:03.019Z,2.00
2022-09-04T03:54:34.822Z,3.00
2022-09-04T04:00:06.513Z,6.00
2022-09-04T04:11:10.874Z,35.00
2022-09-04T04:16:42.533Z,89.00
2022-09-04T04:27:43.868Z,488.00
2022-09-04T04:33:15.523Z,910.00
2022-09-04T04:38:47.638Z,1905.00
2022-09-04T04:44:19.894Z,2553.00
2022-09-04T04:49:51.510Z,3931.00
2022-09-04T04:55:23.315Z,4984.00
2022-09-04T05:00:55.243Z,6033.00
2022-09-04T05:06:26.948Z,6759.00
2022-09-04T05:11:58.911Z,7482.00
2022-09-04T05:17:31.090Z,8958.00
2022-09-04T05:23:02.858Z,12164.00
2022-09-04T05:28:34.483Z,15667.00
2022-09-04T05:34:06.258Z,17498.00
2022-09-04T05:39:37.830Z,37889.00
2022-09-04T05:45:09.626Z,37889.00
2022-09-04T05:50:41.410Z,37889.00
2022-09-04T05:56:13.119Z,37889.00
2022-09-04T06:07:16.912Z,37889.00
2022-09-04T06:12:48.676Z,37889.00
2022-09-04T06:23:49.631Z,37889.00
2022-09-04T06:29:21.586Z,37889.00
2022-09-04T06:34:53.436Z,37889.00
2022-09-04T06:42:37.202Z,37889.00
2022-09-04T06:48:08.495Z,37889.00
2022-09-04T06:53:40.736Z,37889.00
2022-09-04T06:59:12.697Z,37889.00
2022-09-04T07:04:44.377Z,37889.00
2022-09-04T07:10:15.873Z,37889.00
2022-09-04T07:15:47.463Z,37889.00
2022-09-04T07:21:19.187Z,37889.00
2022-09-04T07:26:51.125Z,37889.00
2022-09-04T07:32:22.724Z,37889.00
2022-09-04T07:43:23.791Z,37889.00
2022-09-04T07:48:55.699Z,37889.00
2022-09-04T07:54:27.444Z,37889.00
2022-09-04T08:05:31.113Z,37889.00
2022-09-04T08:11:02.926Z,37889.00
2022-09-04T08:16:34.744Z,37889.00
2022-09-04T08:22:06.323Z,37889.00
2022-09-04T08:38:39.267Z,37889.00
2022-09-04T08:44:10.739Z,37889.00
2022-09-04T08:49:42.398Z,37889.00
2022-09-04T08:55:14.246Z,37889.00
2022-09-04T09:00:45.987Z,37889.00
2022-09-04T09:06:17.173Z,37889.00
2022-09-04T09:17:19.040Z,37889.00
2022-09-04T09:22:50.932Z,37889.00
2022-09-04T09:28:22.523Z,37889.00
2022-09-04T09:33:53.862Z,37889.00
2022-09-04T09:44:54.904Z,34309.00
2022-09-04T09:50:26.366Z,37889.00
2022-09-04T09:55:57.841Z,37889.00
2022-09-04T10:01:29.830Z,37889.00
2022-09-04T10:12:31.545Z,37889.00
2022-09-04T10:18:03.099Z,37889.00
2022-09-04T10:23:34.704Z,37889.00
2022-09-04T10:29:05.955Z,37889.00
2022-09-04T10:34:37.341Z,37889.00
2022-09-04T10:40:09.130Z,37889.00
2022-09-04T10:45:40.420Z,37889.00
2022-09-04T10:51:11.587Z,37889.00
2022-09-04T10:56:42.951Z,37889.00
2022-09-04T11:02:14.264Z,37889.00
2022-09-04T11:07:45.463Z,37889.00
2022-09-04T11:13:16.974Z,37889.00
2022-09-04T11:18:48.840Z,37889.00
2022-09-04T11:24:20.613Z,37889.00
2022-09-04T11:29:52.214Z,37889.00
2022-09-04T11:35:24.040Z,37889.00
2022-09-04T11:40:55.634Z,37889.00
2022-09-04T11:46:27.554Z,37889.00
2022-09-04T11:51:59.241Z,37889.00
2022-09-04T11:57:31.245Z,37889.00
2022-09-04T12:03:02.927Z,37889.00
2022-09-04T12:08:34.561Z,37889.00
2022-09-04T12:14:06.406Z,37889.00
2022-09-04T12:19:38.109Z,37889.00
2022-09-04T12:25:09.739Z,37889.00
2022-09-04T12:30:41.763Z,37889.00
2022-09-04T12:36:13.488Z,37889.00
2022-09-04T12:41:49.279Z,37889.00
2022-09-04T12:47:17.267Z,37889.00
2022-09-04T12:52:48.899Z,37889.00
2022-09-04T12:58:20.412Z,37889.00
2022-09-04T13:03:51.804Z,37889.00
2022-09-04T13:09:23.823Z,37889.00
2022-09-04T13:14:55.467Z,37889.00
2022-09-04T13:20:27.032Z,37889.00
2022-09-04T13:25:59.205Z,37889.00
2022-09-04T13:31:31.249Z,37889.00
2022-09-04T13:37:02.871Z,36336.00
2022-09-04T13:42:34.651Z,33965.00
2022-09-04T13:48:06.603Z,22699.00
2022-09-04T13:53:38.252Z,33390.00
2022-09-04T13:59:10.033Z,20066.00
2022-09-04T14:04:41.797Z,18239.00
2022-09-04T14:10:13.498Z,19561.00
2022-09-04T14:15:45.304Z,18242.00
2022-09-04T14:21:17.188Z,32178.00
2022-09-04T14:26:48.680Z,29986.00
2022-09-04T14:32:20.482Z,29034.00
2022-09-04T14:37:52.247Z,28631.00
2022-09-04T14:43:24.398Z,27194.00
2022-09-04T14:48:55.820Z,26744.00
2022-09-04T14:54:27.648Z,25686.00
2022-09-04T14:59:59.408Z,25045.00
2022-09-04T15:05:31.285Z,25137.00
2022-09-04T15:11:03.169Z,25262.00
2022-09-04T15:16:34.905Z,24309.00
2022-09-04T15:22:06.851Z,24105.00
2022-09-04T15:27:38.550Z,23998.00
2022-09-04T15:33:10.153Z,23600.00
2022-09-04T15:38:41.818Z,23207.00
2022-09-04T15:44:13.694Z,22898.00
2022-09-04T15:49:45.666Z,22454.00
2022-09-04T15:55:17.369Z,21787.00
2022-09-04T16:00:48.958Z,21434.00
2022-09-04T16:06:20.881Z,20839.00
2022-09-04T16:11:52.491Z,20171.00
2022-09-04T16:17:25.880Z,19404.00
2022-09-04T16:22:57.478Z,18719.00
2022-09-04T16:28:29.479Z,17860.00
2022-09-04T16:34:00.957Z,16940.00
2022-09-04T16:39:32.671Z,16004.00
2022-09-04T16:45:04.052Z,15131.00
2022-09-04T16:50:36.034Z,14250.00
2022-09-04T16:56:07.951Z,13288.00
2022-09-04T17:01:39.297Z,12192.00
2022-09-04T17:07:11.140Z,11071.00
2022-09-04T17:12:43.156Z,9988.00
2022-09-04T17:18:14.793Z,8839.00
2022-09-04T17:29:03.743Z,7670.00
2022-09-04T17:29:33.803Z,6472.00
2022-09-04T17:38:42.707Z,5153.00
2022-09-04T17:40:55.517Z,3831.00
2022-09-04T17:45:53.317Z,2627.00
2022-09-04T17:51:25.196Z,1641.00
2022-09-04T17:56:56.800Z,854.00
2022-09-04T18:02:28.428Z,324.00
2022-09-04T18:08:07.340Z,101.00
2022-09-04T18:13:37.886Z,47.00
2022-09-04T18:19:03.681Z,19.00
2022-09-04T18:24:35.413Z,8.00
2022-09-04T18:36:15.613Z,5.00
2022-09-04T18:47:28.782Z,4.00
2022-09-04T18:50:46.625Z,3.00
2022-09-04T18:54:35.822Z,3.00
2022-09-04T19:00:08.427Z,3.00
2022-09-04T19:05:44.718Z,3.00
2022-09-04T19:11:20.611Z,3.00
2022-09-04T19:16:42.858Z,4.00
2022-09-04T19:22:14.064Z,3.00
2022-09-04T19:27:45.429Z,3.00
2022-09-04T19:33:16.826Z,3.00
2022-09-04T19:45:03.670Z,3.00
2022-09-04T19:46:07.886Z,3.00
2022-09-04T19:53:20.263Z,3.00
2022-09-04T19:55:26.022Z,3.00
2022-09-04T20:00:55.842Z,3.00
2022-09-04T20:06:27.279Z,2.00
2022-09-04T20:11:58.839Z,3.00
2022-09-04T20:17:30.691Z,3.00
2022-09-04T20:23:02.406Z,3.00
2022-09-04T20:28:34.192Z,3.00
2022-09-04T20:34:08.214Z,3.00
2022-09-04T20:39:37.690Z,2.00
2022-09-04T20:47:59.645Z,3.00
2022-09-04T20:52:59.018Z,3.00
2022-09-04T20:56:13.373Z,3.00
2022-09-04T21:03:22.836Z,3.00
2022-09-04T21:07:15.830Z,3.00
2022-09-04T21:12:46.935Z,3.00
2022-09-04T21:18:18.631Z,3.00
2022-09-04T21:24:02.780Z,3.00
2022-09-04T21:29:21.569Z,3.00
2022-09-04T21:34:53.427Z,3.00
2022-09-04T21:40:50.390Z,3.00
2022-09-04T21:45:56.637Z,3.00
2022-09-04T21:51:29.376Z,3.00
2022-09-04T22:01:11.993Z,3.00
2022-09-04T22:02:52.858Z,3.00
2022-09-04T22:13:12.311Z,3.00
2022-09-04T22:13:49.197Z,3.00
2022-09-04T22:19:16.207Z,3.00
2022-09-04T22:24:41.286Z,3.00
2022-09-04T22:30:12.147Z,3.00
2022-09-04T22:35:43.688Z,3.00
2022-09-04T22:46:44.917Z,3.00
2022-09-04T22:52:16.670Z,3.00
2022-09-04T22:57:48.569Z,3.00
2022-09-04T23:03:20.388Z,3.00
2022-09-04T23:13:50.102Z,3.00
2022-09-04T23:14:24.107Z,1.00
2022-09-04T23:19:55.368Z,1.00
2022-09-04T23:36:33.649Z,1.00
2022-09-04T23:42:02.319Z,1.00
2022-09-04T23:47:48.213Z,1.00
2022-09-04T23:53:05.821Z,1.00
2022-09-04T23:58:47.244Z,1.00
